createdAt,value
2022-11-16T00:01:40.897Z,95.15
2022-11-16T00:04:09.558Z,95.19
2022-11-16T00:06:35.845Z,95.34
2022-11-16T00:09:22.088Z,95.22
2022-11-16T00:11:51.080Z,95.34
2022-11-16T00:14:19.144Z,95.52
2022-11-16T00:16:45.534Z,95.42
2022-11-16T00:19:12.893Z,95.10
2022-11-16T00:21:39.879Z,95.44
2022-11-16T00:24:07.056Z,95.45
2022-11-16T00:26:33.357Z,95.58
2022-11-16T00:28:59.713Z,95.33
2022-11-16T00:31:26.298Z,95.58
2022-11-16T00:33:52.666Z,95.56
2022-11-16T00:36:18.981Z,95.35
2022-11-16T00:38:45.335Z,95.41
2022-11-16T00:41:11.634Z,95.50
2022-11-16T00:43:38.183Z,95.45
2022-11-16T00:46:05.229Z,95.26
2022-11-16T00:48:32.068Z,95.57
2022-11-16T00:50:58.667Z,95.47
2022-11-16T00:53:24.983Z,95.74
2022-11-16T00:55:51.611Z,95.55
2022-11-16T00:58:17.897Z,95.30
2022-11-16T01:00:44.246Z,95.53
2022-11-16T01:03:10.771Z,95.48
2022-11-16T01:05:37.152Z,95.37
2022-11-16T01:08:03.782Z,95.67
2022-11-16T01:10:30.488Z,95.75
2022-11-16T01:12:57.115Z,95.65
2022-11-16T01:15:25.655Z,95.73
2022-11-16T01:17:53.734Z,95.64
2022-11-16T01:20:22.766Z,95.43
2022-11-16T01:22:49.142Z,95.49
2022-11-16T01:25:16.392Z,95.64
2022-11-16T01:27:43.669Z,95.46
2022-11-16T01:30:12.811Z,95.69
2022-11-16T01:32:39.168Z,95.63
2022-11-16T01:35:06.065Z,95.67
2022-11-16T01:37:33.211Z,95.80
2022-11-16T01:39:59.574Z,95.80
2022-11-16T01:42:28.309Z,95.52
2022-11-16T01:44:58.213Z,95.88
2022-11-16T01:47:24.617Z,95.51
2022-11-16T01:49:57.998Z,95.70
2022-11-16T01:52:28.982Z,95.69
2022-11-16T01:54:55.642Z,95.71
2022-11-16T01:57:32.563Z,95.71
2022-11-16T02:00:00.784Z,95.38
2022-11-16T02:02:27.425Z,95.53
2022-11-16T02:04:55.269Z,95.76
2022-11-16T02:07:54.965Z,95.46
2022-11-16T02:10:41.343Z,95.72
2022-11-16T02:13:32.367Z,95.60
2022-11-16T02:16:14.460Z,95.82
2022-11-16T02:18:50.507Z,95.68
2022-11-16T02:21:40.983Z,95.50
2022-11-16T02:24:43.709Z,95.67
2022-11-16T02:27:28.424Z,95.55
2022-11-16T02:29:56.523Z,95.59
2022-11-16T02:32:42.346Z,95.77
2022-11-16T02:35:32.447Z,95.84
2022-11-16T02:38:09.202Z,95.65
2022-11-16T02:40:39.114Z,95.82
2022-11-16T02:43:12.000Z,95.77
2022-11-16T02:45:42.759Z,95.86
2022-11-16T02:48:14.942Z,95.81
2022-11-16T02:50:42.611Z,95.81
2022-11-16T02:53:08.954Z,95.69
2022-11-16T02:55:36.504Z,95.84
2022-11-16T02:58:09.686Z,95.92
2022-11-16T03:00:44.573Z,95.54
2022-11-16T03:03:25.873Z,95.70
2022-11-16T03:06:06.942Z,95.60
2022-11-16T03:08:49.696Z,95.45
2022-11-16T03:11:35.147Z,95.65
2022-11-16T03:14:14.641Z,95.54
2022-11-16T03:16:46.079Z,95.84
2022-11-16T03:19:17.102Z,95.70
2022-11-16T03:22:23.142Z,95.76
2022-11-16T03:24:50.508Z,95.79
2022-11-16T03:27:44.909Z,95.76
2022-11-16T03:30:18.142Z,95.51
2022-11-16T03:32:56.704Z,95.69
2022-11-16T03:35:31.894Z,95.58
2022-11-16T03:38:00.654Z,95.20
2022-11-16T03:40:30.706Z,95.28
2022-11-16T03:43:00.036Z,95.51
2022-11-16T03:45:26.827Z,95.27
2022-11-16T03:47:53.118Z,95.12
2022-11-16T03:50:19.890Z,95.43
2022-11-16T03:52:46.344Z,95.41
2022-11-16T03:55:12.653Z,95.18
2022-11-16T03:57:38.992Z,95.38
2022-11-16T04:00:06.896Z,95.27
2022-11-16T04:02:33.194Z,95.32
2022-11-16T04:05:18.377Z,95.04
2022-11-16T04:08:03.562Z,95.17
2022-11-16T04:10:48.239Z,95.15
2022-11-16T04:13:34.604Z,94.89
2022-11-16T04:16:19.304Z,95.02
2022-11-16T04:19:04.058Z,94.94
2022-11-16T04:21:56.390Z,94.80
2022-11-16T04:24:27.914Z,94.53
2022-11-16T04:27:17.550Z,94.54
2022-11-16T04:29:43.943Z,94.68
2022-11-16T04:32:30.268Z,94.51
2022-11-16T04:35:15.426Z,94.35
2022-11-16T04:37:52.320Z,94.35
2022-11-16T04:40:21.587Z,94.14
2022-11-16T04:42:54.125Z,93.74
2022-11-16T04:45:40.454Z,93.71
2022-11-16T04:48:06.876Z,94.07
2022-11-16T04:50:33.660Z,93.82
2022-11-16T04:53:00.168Z,93.77
2022-11-16T04:55:26.710Z,93.64
2022-11-16T04:57:53.339Z,93.68
2022-11-16T05:00:20.519Z,93.66
2022-11-16T05:02:47.201Z,93.73
2022-11-16T05:05:13.948Z,93.72
2022-11-16T05:07:40.274Z,93.74
2022-11-16T05:10:07.607Z,93.90
2022-11-16T05:12:34.951Z,93.58
2022-11-16T05:15:01.730Z,93.63
2022-11-16T05:17:29.198Z,93.64
2022-11-16T05:20:14.115Z,93.68
2022-11-16T05:22:40.489Z,93.80
2022-11-16T05:25:08.938Z,93.89
2022-11-16T05:27:35.992Z,93.89
2022-11-16T05:30:02.322Z,94.00
2022-11-16T05:32:28.621Z,93.76
2022-11-16T05:34:55.316Z,93.80
2022-11-16T05:37:23.138Z,93.79
2022-11-16T05:39:49.521Z,93.68
2022-11-16T05:42:15.885Z,94.12
2022-11-16T05:44:42.253Z,94.17
2022-11-16T05:47:08.546Z,94.30
2022-11-16T05:49:34.838Z,94.27
2022-11-16T05:52:01.219Z,94.43
2022-11-16T05:54:27.586Z,94.35
2022-11-16T05:56:54.700Z,94.45
2022-11-16T05:59:22.254Z,94.71
2022-11-16T06:01:49.219Z,94.49
2022-11-16T06:04:15.818Z,94.64
2022-11-16T06:06:42.548Z,94.73
2022-11-16T06:09:11.408Z,94.76
2022-11-16T06:11:38.137Z,94.60
2022-11-16T06:14:05.483Z,94.59
2022-11-16T06:16:31.776Z,94.81
2022-11-16T06:18:59.589Z,94.61
2022-11-16T06:21:26.247Z,94.63
2022-11-16T06:23:52.542Z,94.66
2022-11-16T06:26:18.886Z,94.65
2022-11-16T06:28:45.208Z,94.56
2022-11-16T06:31:11.583Z,94.76
2022-11-16T06:33:37.921Z,94.80
2022-11-16T06:36:04.637Z,94.87
2022-11-16T06:38:31.682Z,94.84
2022-11-16T06:40:59.186Z,94.68
2022-11-16T06:43:26.642Z,94.90
2022-11-16T06:45:55.766Z,94.68
2022-11-16T06:48:22.535Z,94.46
2022-11-16T06:50:49.863Z,94.68
2022-11-16T06:53:16.754Z,94.69
2022-11-16T06:55:43.142Z,94.46
2022-11-16T06:58:09.696Z,94.42
2022-11-16T07:00:36.438Z,94.30
2022-11-16T07:03:03.673Z,94.45
2022-11-16T07:05:31.195Z,94.35
2022-11-16T07:07:57.970Z,94.48
2022-11-16T07:10:25.278Z,94.36
2022-11-16T07:12:51.654Z,94.61
2022-11-16T07:15:18.218Z,94.43
2022-11-16T07:17:44.528Z,94.53
2022-11-16T07:20:12.004Z,94.40
2022-11-16T07:22:38.462Z,94.50
2022-11-16T07:25:05.202Z,94.33
2022-11-16T07:27:31.538Z,94.33
2022-11-16T07:29:58.022Z,94.20
2022-11-16T07:32:26.682Z,94.17
2022-11-16T07:34:53.371Z,94.29
2022-11-16T07:37:19.820Z,94.23
2022-11-16T07:39:46.214Z,94.00
2022-11-16T07:42:12.634Z,94.08
2022-11-16T07:44:39.140Z,94.21
2022-11-16T07:47:05.870Z,93.98
2022-11-16T07:49:32.218Z,94.03
2022-11-16T07:51:58.702Z,93.90
2022-11-16T07:54:25.020Z,93.89
2022-11-16T07:56:51.400Z,93.66
2022-11-16T07:59:17.851Z,93.62
2022-11-16T08:01:47.622Z,93.60
2022-11-16T08:04:15.439Z,93.82
2022-11-16T08:06:41.749Z,93.59
2022-11-16T08:09:09.321Z,93.46
2022-11-16T08:11:35.709Z,93.58
2022-11-16T08:14:02.173Z,93.10
2022-11-16T08:16:28.630Z,92.07
2022-11-16T08:18:55.008Z,91.58
2022-11-16T08:21:21.496Z,90.97
2022-11-16T08:23:47.874Z,91.03
2022-11-16T08:26:19.342Z,91.20
2022-11-16T08:28:47.918Z,91.14
2022-11-16T08:31:17.853Z,91.34
2022-11-16T08:33:44.729Z,91.00
2022-11-16T08:36:14.465Z,90.94
2022-11-16T08:38:41.088Z,90.78
2022-11-16T08:41:08.278Z,91.13
2022-11-16T08:43:35.693Z,91.04
2022-11-16T08:46:02.192Z,91.04
2022-11-16T08:48:28.495Z,91.11
2022-11-16T08:51:16.496Z,90.52
2022-11-16T08:53:41.306Z,88.73
2022-11-16T08:56:10.116Z,88.74
2022-11-16T08:58:36.549Z,88.54
2022-11-16T09:01:11.064Z,88.48
2022-11-16T09:03:38.793Z,86.08
2022-11-16T09:08:47.263Z,86.19
2022-11-16T09:11:16.635Z,87.06
2022-11-16T09:13:44.311Z,86.67
2022-11-16T09:16:11.019Z,86.86
2022-11-16T09:18:38.124Z,87.15
2022-11-16T09:21:04.962Z,87.50
2022-11-16T09:23:31.791Z,87.75
2022-11-16T09:26:02.613Z,87.39
2022-11-16T09:28:29.377Z,87.59
2022-11-16T09:31:00.908Z,87.59
2022-11-16T09:33:32.027Z,88.02
2022-11-16T09:36:09.659Z,87.86
2022-11-16T09:39:13.262Z,88.05
2022-11-16T09:42:07.236Z,88.30
2022-11-16T09:44:33.573Z,87.78
2022-11-16T09:47:01.978Z,87.64
2022-11-16T09:49:39.156Z,87.75
2022-11-16T09:52:14.210Z,87.57
2022-11-16T09:54:44.529Z,87.44
2022-11-16T09:57:14.579Z,85.42
2022-11-16T09:59:44.909Z,85.22
2022-11-16T10:02:26.590Z,85.62
2022-11-16T10:05:14.727Z,85.79
2022-11-16T10:07:48.307Z,85.46
2022-11-16T10:10:38.192Z,85.89
2022-11-16T10:13:29.815Z,84.50
2022-11-16T10:16:18.356Z,85.38
2022-11-16T10:18:56.182Z,84.92
2022-11-16T10:21:36.087Z,85.58
2022-11-16T10:24:16.422Z,85.42
2022-11-16T10:27:20.779Z,85.44
2022-11-16T10:29:54.546Z,85.42
2022-11-16T10:32:30.883Z,84.47
2022-11-16T10:35:06.014Z,84.96
2022-11-16T10:37:38.671Z,85.08
2022-11-16T10:40:16.285Z,84.83
2022-11-16T10:42:45.279Z,84.19
2022-11-16T10:45:20.834Z,83.82
2022-11-16T10:47:58.348Z,83.60
2022-11-16T10:50:32.562Z,84.16
2022-11-16T10:52:59.885Z,83.63
2022-11-16T10:55:28.563Z,84.12
2022-11-16T10:57:57.952Z,83.11
2022-11-16T11:00:36.472Z,83.70
2022-11-16T11:03:02.863Z,83.43
2022-11-16T11:05:29.836Z,82.58
2022-11-16T11:08:06.111Z,83.96
2022-11-16T11:10:36.834Z,83.24
2022-11-16T11:13:04.986Z,82.36
2022-11-16T11:15:32.027Z,83.05
2022-11-16T11:18:23.256Z,82.41
2022-11-16T11:20:51.202Z,83.33
2022-11-16T11:23:23.724Z,83.74
2022-11-16T11:25:58.433Z,83.58
2022-11-16T11:28:33.701Z,83.65
2022-11-16T11:31:03.650Z,82.21
2022-11-16T11:33:34.809Z,82.55
2022-11-16T11:36:18.551Z,82.13
2022-11-16T11:39:08.289Z,82.10
2022-11-16T11:41:38.924Z,82.34
2022-11-16T11:44:14.679Z,82.09
2022-11-16T11:47:35.317Z,81.99
2022-11-16T11:49:40.521Z,81.67
2022-11-16T11:52:17.417Z,81.33
2022-11-16T11:54:47.666Z,81.40
2022-11-16T11:57:20.529Z,80.96
2022-11-16T11:59:47.712Z,80.53
2022-11-16T12:02:42.399Z,80.47
2022-11-16T12:05:35.161Z,81.26
2022-11-16T12:08:18.012Z,81.63
2022-11-16T12:10:49.175Z,81.40
2022-11-16T12:13:35.038Z,81.82
2022-11-16T12:16:12.186Z,81.75
2022-11-16T12:18:38.474Z,81.00
2022-11-16T12:21:15.122Z,81.88
2022-11-16T12:24:03.462Z,81.74
2022-11-16T12:26:46.185Z,82.24
2022-11-16T12:29:16.834Z,82.03
2022-11-16T12:32:14.170Z,82.35
2022-11-16T12:35:05.574Z,81.42
2022-11-16T12:37:41.182Z,81.05
2022-11-16T12:40:10.260Z,80.48
2022-11-16T12:42:36.517Z,80.71
2022-11-16T12:45:32.621Z,81.60
2022-11-16T12:48:16.251Z,79.88
2022-11-16T12:51:39.284Z,80.14
2022-11-16T12:55:19.186Z,79.55
2022-11-16T12:58:24.143Z,78.69
2022-11-16T13:04:07.532Z,79.18
2022-11-16T13:06:59.654Z,79.09
2022-11-16T13:10:01.752Z,79.20
2022-11-16T13:12:31.704Z,77.70
2022-11-16T13:15:31.177Z,78.03
2022-11-16T13:18:07.331Z,77.51
2022-11-16T13:20:58.745Z,77.43
2022-11-16T13:23:40.322Z,77.49
2022-11-16T13:26:42.740Z,77.31
2022-11-16T13:29:57.910Z,77.30
2022-11-16T13:32:53.036Z,77.50
2022-11-16T13:35:34.352Z,76.92
2022-11-16T13:38:09.855Z,76.92
2022-11-16T13:40:36.715Z,77.58
2022-11-16T13:43:09.147Z,76.98
2022-11-16T13:45:49.121Z,77.51
2022-11-16T13:48:42.838Z,77.08
2022-11-16T13:51:43.572Z,78.02
2022-11-16T13:54:50.044Z,78.75
2022-11-16T13:57:25.737Z,78.30
2022-11-16T14:00:06.205Z,78.16
2022-11-16T14:02:40.366Z,78.39
2022-11-16T14:05:17.769Z,78.83
2022-11-16T14:07:59.433Z,78.71
2022-11-16T14:10:47.054Z,78.91
2022-11-16T14:13:40.360Z,78.74
2022-11-16T14:16:22.172Z,78.14
2022-11-16T14:19:04.325Z,79.05
2022-11-16T14:24:50.848Z,78.17
2022-11-16T14:27:38.663Z,78.44
2022-11-16T14:30:43.931Z,78.58
2022-11-16T14:33:32.089Z,78.97
2022-11-16T14:36:16.218Z,79.07
2022-11-16T14:38:51.250Z,78.97
2022-11-16T14:41:30.171Z,79.65
2022-11-16T14:43:59.749Z,80.27
2022-11-16T14:46:40.563Z,80.31
2022-11-16T14:49:20.055Z,79.87
2022-11-16T14:51:55.038Z,79.94
2022-11-16T14:54:53.544Z,80.31
2022-11-16T14:57:24.420Z,79.82
2022-11-16T15:00:44.509Z,80.09
2022-11-16T15:03:14.984Z,80.30
2022-11-16T15:05:50.516Z,80.50
2022-11-16T15:08:42.094Z,80.67
2022-11-16T15:11:24.319Z,80.65
2022-11-16T15:13:51.688Z,81.03
2022-11-16T15:16:20.092Z,81.61
2022-11-16T15:19:12.217Z,81.31
2022-11-16T15:21:38.622Z,81.40
2022-11-16T15:26:51.525Z,81.69
2022-11-16T15:29:19.684Z,82.05
2022-11-16T15:31:47.177Z,82.12
2022-11-16T15:34:16.668Z,82.21
2022-11-16T15:36:43.867Z,82.48
2022-11-16T15:39:15.494Z,82.58
2022-11-16T15:41:42.866Z,82.92
2022-11-16T15:44:15.838Z,82.97
2022-11-16T15:46:48.749Z,83.20
2022-11-16T15:49:35.931Z,83.27
2022-11-16T15:52:02.473Z,83.46
2022-11-16T15:54:54.429Z,83.61
2022-11-16T15:57:22.837Z,83.79
2022-11-16T15:59:57.212Z,83.94
2022-11-16T16:02:27.575Z,84.08
2022-11-16T16:04:54.364Z,84.27
2022-11-16T16:07:36.641Z,84.47
2022-11-16T16:10:18.218Z,84.76
2022-11-16T16:12:50.897Z,84.92
2022-11-16T16:15:36.389Z,84.85
2022-11-16T16:18:11.385Z,85.07
2022-11-16T16:20:37.889Z,85.65
2022-11-16T16:23:13.286Z,85.72
2022-11-16T16:25:39.569Z,85.74
2022-11-16T16:28:05.869Z,85.69
2022-11-16T16:30:34.585Z,85.92
2022-11-16T16:33:01.651Z,86.00
2022-11-16T16:35:28.564Z,85.94
2022-11-16T16:38:00.718Z,86.18
2022-11-16T16:40:28.403Z,86.03
2022-11-16T16:42:55.778Z,86.00
2022-11-16T16:45:37.223Z,86.47
2022-11-16T16:48:03.896Z,86.16
2022-11-16T16:50:30.233Z,86.36
2022-11-16T16:52:56.569Z,86.55
2022-11-16T16:55:23.280Z,86.56
2022-11-16T16:57:49.625Z,86.51
2022-11-16T17:00:16.530Z,86.66
2022-11-16T17:02:42.966Z,86.80
2022-11-16T17:05:09.782Z,86.82
2022-11-16T17:07:36.246Z,86.69
2022-11-16T17:10:02.627Z,86.72
2022-11-16T17:12:29.002Z,86.80
2022-11-16T17:14:55.496Z,86.97
2022-11-16T17:17:24.223Z,86.69
2022-11-16T17:19:51.502Z,86.80
2022-11-16T17:22:18.990Z,86.89
2022-11-16T17:24:45.379Z,86.99
2022-11-16T17:27:11.905Z,86.88
2022-11-16T17:29:38.227Z,86.89
2022-11-16T17:32:04.837Z,87.05
2022-11-16T17:34:31.722Z,87.01
2022-11-16T17:36:58.173Z,87.16
2022-11-16T17:39:24.924Z,87.12
2022-11-16T17:41:51.746Z,87.21
2022-11-16T17:44:21.802Z,87.28
2022-11-16T17:46:48.557Z,87.18
2022-11-16T17:49:15.859Z,87.43
2022-11-16T17:51:42.528Z,87.32
2022-11-16T17:54:09.114Z,87.28
2022-11-16T17:56:35.513Z,87.54
2022-11-16T17:59:01.971Z,87.26
2022-11-16T18:01:28.505Z,87.52
2022-11-16T18:03:55.154Z,87.47
2022-11-16T18:06:23.564Z,87.73
2022-11-16T18:08:49.869Z,87.85
2022-11-16T18:11:24.365Z,87.87
2022-11-16T18:14:00.985Z,88.09
2022-11-16T18:16:30.031Z,88.16
2022-11-16T18:18:58.470Z,88.05
2022-11-16T18:21:25.591Z,88.16
2022-11-16T18:23:52.366Z,88.10
2022-11-16T18:26:21.515Z,88.30
2022-11-16T18:28:48.541Z,88.30
2022-11-16T18:31:16.970Z,88.46
2022-11-16T18:33:44.246Z,88.25
2022-11-16T18:36:11.949Z,88.28
2022-11-16T18:38:38.809Z,88.26
2022-11-16T18:41:11.184Z,88.11
2022-11-16T18:43:42.560Z,87.98
2022-11-16T18:46:09.101Z,88.01
2022-11-16T18:48:35.435Z,87.77
2022-11-16T18:51:03.872Z,87.68
2022-11-16T18:53:32.045Z,87.54
2022-11-16T18:55:58.795Z,87.45
2022-11-16T18:58:49.298Z,87.61
2022-11-16T19:01:14.341Z,87.62
2022-11-16T19:03:41.045Z,87.39
2022-11-16T19:06:08.718Z,87.40
2022-11-16T19:08:36.907Z,87.50
2022-11-16T19:11:08.574Z,87.54
2022-11-16T19:13:35.471Z,87.45
2022-11-16T19:16:02.087Z,87.46
2022-11-16T19:18:29.409Z,87.42
2022-11-16T19:21:07.090Z,87.47
2022-11-16T19:23:42.828Z,87.35
2022-11-16T19:26:09.901Z,87.33
2022-11-16T19:28:37.718Z,87.15
2022-11-16T19:31:13.270Z,87.38
2022-11-16T19:33:40.384Z,87.24
2022-11-16T19:36:11.755Z,87.32
2022-11-16T19:38:38.234Z,87.26
2022-11-16T19:41:05.225Z,87.46
2022-11-16T19:43:32.237Z,87.40
2022-11-16T19:46:07.118Z,87.43
2022-11-16T19:48:34.325Z,87.38
2022-11-16T19:51:08.521Z,87.29
2022-11-16T19:53:35.952Z,86.92
2022-11-16T19:56:02.986Z,87.12
2022-11-16T19:58:29.343Z,87.00
2022-11-16T20:01:04.079Z,87.07
2022-11-16T20:03:31.363Z,86.88
2022-11-16T20:06:15.955Z,86.95
2022-11-16T20:08:46.586Z,86.78
2022-11-16T20:11:18.029Z,86.88
2022-11-16T20:13:45.207Z,86.85
2022-11-16T20:16:13.032Z,87.18
2022-11-16T20:18:40.621Z,87.08
2022-11-16T20:21:08.240Z,87.06
2022-11-16T20:23:35.536Z,86.88
2022-11-16T20:26:06.544Z,86.60
2022-11-16T20:28:41.135Z,86.72
2022-11-16T20:31:09.633Z,86.59
2022-11-16T20:33:36.449Z,86.55
2022-11-16T20:36:05.355Z,86.45
2022-11-16T20:38:33.514Z,86.26
2022-11-16T20:41:09.696Z,86.59
2022-11-16T20:43:36.559Z,86.56
2022-11-16T20:46:03.186Z,86.18
2022-11-16T20:48:29.516Z,86.09
2022-11-16T20:50:55.854Z,86.21
2022-11-16T20:53:22.473Z,86.25
2022-11-16T20:55:49.679Z,86.06
2022-11-16T20:58:22.429Z,86.11
2022-11-16T21:00:49.746Z,86.13
2022-11-16T21:03:16.573Z,86.11
2022-11-16T21:05:44.223Z,86.43
2022-11-16T21:08:12.073Z,86.26
2022-11-16T21:10:39.579Z,86.16
2022-11-16T21:13:25.203Z,86.04
2022-11-16T21:15:59.594Z,85.85
2022-11-16T21:18:30.493Z,85.86
2022-11-16T21:20:59.666Z,85.91
2022-11-16T21:23:29.026Z,85.83
2022-11-16T21:25:55.995Z,85.57
2022-11-16T21:28:25.539Z,85.79
2022-11-16T21:31:00.981Z,85.77
2022-11-16T21:33:28.057Z,85.71
2022-11-16T21:35:54.906Z,85.99
2022-11-16T21:38:24.395Z,85.86
2022-11-16T21:40:51.156Z,85.97
2022-11-16T21:43:17.738Z,85.95
2022-11-16T21:45:45.566Z,85.84
2022-11-16T21:48:12.062Z,85.73
2022-11-16T21:50:38.799Z,85.91
2022-11-16T21:53:06.933Z,85.94
2022-11-16T21:55:33.621Z,85.96
2022-11-16T21:58:00.453Z,86.09
2022-11-16T22:00:27.754Z,86.06
2022-11-16T22:02:54.122Z,85.89
2022-11-16T22:05:39.207Z,86.22
2022-11-16T22:08:08.075Z,86.02
2022-11-16T22:10:34.970Z,86.09
2022-11-16T22:13:01.568Z,86.00
2022-11-16T22:15:27.930Z,86.06
2022-11-16T22:17:54.221Z,86.14
2022-11-16T22:20:21.081Z,86.23
2022-11-16T22:22:47.421Z,86.20
2022-11-16T22:25:13.966Z,86.43
2022-11-16T22:27:58.715Z,86.57
2022-11-16T22:30:26.877Z,86.38
2022-11-16T22:32:54.416Z,86.51
2022-11-16T22:35:20.831Z,86.36
2022-11-16T22:37:47.168Z,86.71
2022-11-16T22:40:17.639Z,86.75
2022-11-16T22:42:44.282Z,86.65
2022-11-16T22:45:10.574Z,86.95
2022-11-16T22:47:36.968Z,86.93
2022-11-16T22:50:03.794Z,87.19
2022-11-16T22:52:30.855Z,87.51
2022-11-16T22:54:57.189Z,87.70
2022-11-16T22:57:23.487Z,87.55
2022-11-16T22:59:50.943Z,88.35
2022-11-16T23:02:17.395Z,88.29
2022-11-16T23:04:43.677Z,88.38
2022-11-16T23:07:10.043Z,88.85
2022-11-16T23:09:36.466Z,89.02
2022-11-16T23:12:21.405Z,89.03
2022-11-16T23:15:06.287Z,89.39
2022-11-16T23:17:32.574Z,89.87
2022-11-16T23:20:28.450Z,89.68
2022-11-16T23:23:13.755Z,89.96
2022-11-16T23:25:59.111Z,90.31
2022-11-16T23:28:25.846Z,90.53
2022-11-16T23:30:52.162Z,90.55
2022-11-16T23:33:38.527Z,90.64
2022-11-16T23:36:05.190Z,90.74
2022-11-16T23:38:31.481Z,91.04
2022-11-16T23:40:57.863Z,91.38
2022-11-16T23:43:42.642Z,91.27
2022-11-16T23:46:10.129Z,91.56
2022-11-16T23:48:36.428Z,91.85
2022-11-16T23:51:02.778Z,91.59
2022-11-16T23:53:29.089Z,91.75
2022-11-16T23:56:05.790Z,91.45
2022-11-16T23:58:32.581Z,91.83
